createdAt,value
2022-08-12T00:00:39.072Z,1022.97
2022-08-12T00:02:03.401Z,1022.94
2022-08-12T00:02:39.256Z,1023
2022-08-12T00:03:39.125Z,1023
2022-08-12T00:04:39.086Z,1023
2022-08-12T00:05:39.097Z,1023
2022-08-12T00:06:39.080Z,1023.03
2022-08-12T00:07:39.081Z,1023
2022-08-12T00:08:39.104Z,1023.03
2022-08-12T00:09:39.091Z,1022.98
2022-08-12T00:10:39.078Z,1022.97
2022-08-12T00:11:39.078Z,1023.03
2022-08-12T00:12:39.208Z,1023
2022-08-12T00:13:39.093Z,1022.99
2022-08-12T00:14:39.075Z,1022.96
2022-08-12T00:15:39.092Z,1022.95
2022-08-12T00:16:39.078Z,1022.96
2022-08-12T00:17:39.081Z,1022.89
2022-08-12T00:18:39.095Z,1022.92
2022-08-12T00:19:39.081Z,1022.92
2022-08-12T00:20:39.101Z,1022.98
2022-08-12T00:21:39.084Z,1022.94
2022-08-12T00:22:39.451Z,1022.92
2022-08-12T00:23:39.108Z,1022.93
2022-08-12T00:24:39.099Z,1022.92
2022-08-12T00:26:05.701Z,1022.95
2022-08-12T00:26:39.096Z,1022.95
2022-08-12T00:27:43.913Z,1022.91
2022-08-12T00:28:39.110Z,1022.9
2022-08-12T00:29:39.094Z,1022.89
2022-08-12T00:30:39.075Z,1022.92
2022-08-12T00:31:39.085Z,1022.93
2022-08-12T00:32:39.094Z,1022.96
2022-08-12T00:33:51.776Z,1022.9
2022-08-12T00:34:39.096Z,1022.93
2022-08-12T00:35:39.103Z,1022.92
2022-08-12T00:36:39.088Z,1022.94
2022-08-12T00:37:39.092Z,1022.9
2022-08-12T00:38:39.096Z,1022.89
2022-08-12T00:39:39.188Z,1022.85
2022-08-12T00:40:39.093Z,1022.84
2022-08-12T00:41:39.096Z,1022.83
2022-08-12T00:42:39.301Z,1022.87
2022-08-12T00:43:39.102Z,1022.85
2022-08-12T00:44:39.092Z,1022.81
2022-08-12T00:45:39.090Z,1022.8
2022-08-12T00:46:39.085Z,1022.82
2022-08-12T00:47:39.079Z,1022.79
2022-08-12T00:48:39.113Z,1022.79
2022-08-12T00:49:39.079Z,1022.81
2022-08-12T00:50:39.100Z,1022.78
2022-08-12T00:51:39.094Z,1022.78
2022-08-12T00:52:39.219Z,1022.75
2022-08-12T00:53:39.106Z,1022.76
2022-08-12T00:54:39.075Z,1022.76
2022-08-12T00:55:39.082Z,1022.78
2022-08-12T00:56:39.094Z,1022.82
2022-08-12T00:57:39.079Z,1022.8
2022-08-12T00:58:39.097Z,1022.79
2022-08-12T00:59:39.090Z,1022.8
2022-08-12T01:00:39.080Z,1022.81
2022-08-12T01:02:11.364Z,1022.79
2022-08-12T01:02:39.251Z,1022.78
2022-08-12T01:03:39.092Z,1022.81
2022-08-12T01:04:39.079Z,1022.79
2022-08-12T01:05:39.106Z,1022.78
2022-08-12T01:06:39.079Z,1022.76
2022-08-12T01:07:39.090Z,1022.8
2022-08-12T01:08:39.095Z,1022.79
2022-08-12T01:09:39.073Z,1022.8
2022-08-12T01:10:39.084Z,1022.79
2022-08-12T01:11:39.090Z,1022.79
2022-08-12T01:12:39.249Z,1022.8
2022-08-12T01:13:39.104Z,1022.8
2022-08-12T01:14:39.094Z,1022.76
2022-08-12T01:15:39.089Z,1022.74
2022-08-12T01:16:39.085Z,1022.76
2022-08-12T01:17:39.081Z,1022.74
2022-08-12T01:18:39.105Z,1022.74
2022-08-12T01:19:39.072Z,1022.75
2022-08-12T01:20:39.110Z,1022.75
2022-08-12T01:21:39.083Z,1022.75
2022-08-12T01:22:39.348Z,1022.76
2022-08-12T01:23:39.093Z,1022.82
2022-08-12T01:24:39.082Z,1022.8
2022-08-12T01:25:41.560Z,1022.82
2022-08-12T01:26:39.084Z,1022.82
2022-08-12T01:27:39.088Z,1022.85
2022-08-12T01:28:39.097Z,1022.87
2022-08-12T01:32:39.278Z,1022.86
2022-08-12T01:33:39.119Z,1022.87
2022-08-12T01:34:39.195Z,1022.85
2022-08-12T01:35:39.098Z,1022.8
2022-08-12T01:36:39.087Z,1022.82
2022-08-12T01:37:39.200Z,1022.8
2022-08-12T01:38:39.214Z,1022.82
2022-08-12T01:39:39.161Z,1022.82
2022-08-12T01:40:42.488Z,1022.8
2022-08-12T01:41:39.106Z,1022.74
2022-08-12T01:42:39.289Z,1022.73
2022-08-12T01:43:39.094Z,1022.72
2022-08-12T01:44:39.100Z,1022.75
2022-08-12T01:45:40.679Z,1022.73
2022-08-12T01:46:39.080Z,1022.78
2022-08-12T01:47:39.087Z,1022.76
2022-08-12T01:48:39.092Z,1022.76
2022-08-12T01:49:39.092Z,1022.82
2022-08-12T01:50:39.099Z,1022.75
2022-08-12T01:52:16.390Z,1022.76
2022-08-12T01:52:39.309Z,1022.79
2022-08-12T01:53:50.302Z,1022.81
2022-08-12T01:54:39.089Z,1022.78
2022-08-12T01:55:39.096Z,1022.86
2022-08-12T01:56:39.078Z,1022.82
2022-08-12T01:57:58.702Z,1022.83
2022-08-12T01:58:39.097Z,1022.83
2022-08-12T01:59:39.090Z,1022.82
2022-08-12T02:00:43.460Z,1022.81
2022-08-12T02:01:39.135Z,1022.82
2022-08-12T02:02:39.330Z,1022.82
2022-08-12T02:03:39.086Z,1022.8
2022-08-12T02:04:39.073Z,1022.86
2022-08-12T02:05:39.115Z,1022.83
2022-08-12T02:06:39.090Z,1022.84
2022-08-12T02:07:39.084Z,1022.81
2022-08-12T02:08:39.108Z,1022.82
2022-08-12T02:09:39.081Z,1022.76
2022-08-12T02:10:50.875Z,1022.76
2022-08-12T02:11:39.090Z,1022.8
2022-08-12T02:12:39.166Z,1022.76
2022-08-12T02:13:48.605Z,1022.75
2022-08-12T02:14:39.087Z,1022.76
2022-08-12T02:15:39.089Z,1022.75
2022-08-12T02:16:39.089Z,1022.78
2022-08-12T02:17:55.652Z,1022.78
2022-08-12T02:18:39.107Z,1022.75
2022-08-12T02:19:39.086Z,1022.83
2022-08-12T02:20:51.741Z,1022.84
2022-08-12T02:21:39.095Z,1022.8
2022-08-12T02:22:39.422Z,1022.83
2022-08-12T02:23:39.094Z,1022.81
2022-08-12T02:24:39.084Z,1022.84
2022-08-12T02:25:39.085Z,1022.79
2022-08-12T02:26:39.094Z,1022.79
2022-08-12T02:27:39.099Z,1022.75
2022-08-12T02:28:39.109Z,1022.75
2022-08-12T02:29:39.087Z,1022.82
2022-08-12T02:30:42.446Z,1022.8
2022-08-12T02:31:39.097Z,1022.81
2022-08-12T02:32:39.234Z,1022.8
2022-08-12T02:33:39.100Z,1022.78
2022-08-12T02:34:39.090Z,1022.78
2022-08-12T02:35:39.101Z,1022.79
2022-08-12T02:36:39.090Z,1022.83
2022-08-12T02:37:39.091Z,1022.78
2022-08-12T02:38:39.107Z,1022.78
2022-08-12T02:39:39.109Z,1022.73
2022-08-12T02:40:39.081Z,1022.71
2022-08-12T02:41:39.094Z,1022.72
2022-08-12T02:42:39.263Z,1022.69
2022-08-12T02:43:39.107Z,1022.7
2022-08-12T02:44:39.076Z,1022.66
2022-08-12T02:45:39.092Z,1022.73
2022-08-12T02:46:39.095Z,1022.74
2022-08-12T02:47:59.105Z,1022.75
2022-08-12T02:48:39.093Z,1022.72
2022-08-12T02:49:39.074Z,1022.7
2022-08-12T02:50:39.090Z,1022.7
2022-08-12T02:51:39.085Z,1022.66
2022-08-12T02:52:39.139Z,1022.68
2022-08-12T02:53:39.112Z,1022.65
2022-08-12T02:54:39.077Z,1022.65
2022-08-12T02:55:39.079Z,1022.69
2022-08-12T02:56:39.091Z,1022.7
2022-08-12T02:57:39.083Z,1022.69
2022-08-12T02:58:41.221Z,1022.7
2022-08-12T02:59:39.081Z,1022.7
2022-08-12T03:00:39.131Z,1022.68
2022-08-12T03:01:42.553Z,1022.7
2022-08-12T03:02:39.240Z,1022.73
2022-08-12T03:03:39.102Z,1022.71
2022-08-12T03:04:43.097Z,1022.74
2022-08-12T03:05:44.337Z,1022.72
2022-08-12T03:06:39.092Z,1022.69
2022-08-12T03:07:55.879Z,1022.66
2022-08-12T03:08:39.103Z,1022.69
2022-08-12T03:09:54.318Z,1022.72
2022-08-12T03:10:39.098Z,1022.7
2022-08-12T03:11:42.642Z,1022.67
2022-08-12T03:12:48.805Z,1022.71
2022-08-12T03:13:39.093Z,1022.74
2022-08-12T03:14:39.091Z,1022.7
2022-08-12T03:15:39.077Z,1022.73
2022-08-12T03:16:39.080Z,1022.76
2022-08-12T03:17:39.087Z,1022.78
2022-08-12T03:18:39.088Z,1022.81
2022-08-12T03:20:10.386Z,1022.83
2022-08-12T03:20:39.110Z,1022.85
2022-08-12T03:21:52.687Z,1022.83
2022-08-12T03:22:39.238Z,1022.79
2022-08-12T03:23:39.100Z,1022.84
2022-08-12T03:24:39.092Z,1022.85
2022-08-12T03:25:39.082Z,1022.88
2022-08-12T03:26:39.092Z,1022.88
2022-08-12T03:27:39.090Z,1022.89
2022-08-12T03:28:39.116Z,1022.85
2022-08-12T03:29:49.720Z,1022.86
2022-08-12T03:30:39.101Z,1022.85
2022-08-12T03:31:39.094Z,1022.83
2022-08-12T03:32:39.091Z,1022.83
2022-08-12T03:33:39.110Z,1022.89
2022-08-12T03:34:39.092Z,1022.88
2022-08-12T03:35:41.378Z,1022.88
2022-08-12T03:36:39.094Z,1022.86
2022-08-12T03:37:39.094Z,1022.82
2022-08-12T03:38:39.091Z,1022.83
2022-08-12T03:39:39.130Z,1022.85
2022-08-12T03:40:39.075Z,1022.84
2022-08-12T03:41:39.082Z,1022.85
2022-08-12T03:42:39.335Z,1022.88
2022-08-12T03:43:39.088Z,1022.85
2022-08-12T03:44:39.101Z,1022.86
2022-08-12T03:45:52.177Z,1022.89
2022-08-12T03:46:39.090Z,1022.91
2022-08-12T03:47:39.077Z,1022.9
2022-08-12T03:48:39.111Z,1022.89
2022-08-12T03:49:39.087Z,1022.92
2022-08-12T03:50:39.090Z,1022.93
2022-08-12T03:51:39.079Z,1022.93
2022-08-12T03:52:39.286Z,1022.93
2022-08-12T03:53:39.090Z,1022.93
2022-08-12T03:54:42.517Z,1022.95
2022-08-12T03:55:39.071Z,1022.91
2022-08-12T03:56:39.075Z,1022.89
2022-08-12T03:57:39.069Z,1022.9
2022-08-12T03:58:39.085Z,1022.88
2022-08-12T03:59:39.078Z,1022.88
2022-08-12T04:00:39.137Z,1022.84
2022-08-12T04:01:40.915Z,1022.88
2022-08-12T04:02:39.162Z,1022.94
2022-08-12T04:03:39.105Z,1022.97
2022-08-12T04:04:39.069Z,1022.96
2022-08-12T04:05:56.053Z,1022.97
2022-08-12T04:06:39.135Z,1022.98
2022-08-12T04:07:39.075Z,1022.94
2022-08-12T04:08:39.113Z,1022.92
2022-08-12T04:09:39.076Z,1022.94
2022-08-12T04:10:39.094Z,1022.97
2022-08-12T04:11:46.941Z,1022.95
2022-08-12T04:12:39.078Z,1022.96
2022-08-12T04:13:39.113Z,1023.03
2022-08-12T04:14:39.080Z,1023.03
2022-08-12T04:15:39.097Z,1023.06
2022-08-12T04:16:39.092Z,1023.05
2022-08-12T04:17:39.088Z,1022.99
2022-08-12T04:18:39.107Z,1022.94
2022-08-12T04:19:39.081Z,1022.95
2022-08-12T04:20:39.193Z,1022.9
2022-08-12T04:21:43.979Z,1022.95
2022-08-12T04:22:39.256Z,1022.97
2022-08-12T04:23:39.086Z,1022.97
2022-08-12T04:24:40.884Z,1022.96
2022-08-12T04:25:39.086Z,1022.99
2022-08-12T04:26:39.083Z,1022.95
2022-08-12T04:27:39.072Z,1022.94
2022-08-12T04:28:39.104Z,1022.88
2022-08-12T04:30:22.393Z,1022.89
2022-08-12T04:30:39.090Z,1022.95
2022-08-12T04:31:39.103Z,1022.91
2022-08-12T04:32:44.118Z,1022.86
2022-08-12T04:33:39.105Z,1022.96
2022-08-12T04:34:39.077Z,1022.95
2022-08-12T04:35:39.098Z,1022.92
2022-08-12T04:36:39.093Z,1022.95
2022-08-12T04:37:59.400Z,1022.89
2022-08-12T04:38:39.108Z,1022.9
2022-08-12T04:39:39.102Z,1022.9
2022-08-12T04:40:39.079Z,1022.9
2022-08-12T04:41:39.086Z,1022.91
2022-08-12T04:42:39.300Z,1022.91
2022-08-12T04:44:00.423Z,1022.86
2022-08-12T04:44:39.073Z,1022.89
2022-08-12T04:45:39.074Z,1022.88
2022-08-12T04:46:39.070Z,1022.89
2022-08-12T04:47:39.077Z,1022.89
2022-08-12T04:48:39.090Z,1022.89
2022-08-12T04:49:39.070Z,1022.89
2022-08-12T04:50:39.069Z,1022.87
2022-08-12T04:51:39.093Z,1022.89
2022-08-12T04:52:39.071Z,1022.89
2022-08-12T04:53:39.095Z,1022.91
2022-08-12T04:57:39.088Z,1022.87
2022-08-12T04:58:39.098Z,1022.88
2022-08-12T04:59:47.030Z,1022.9
2022-08-12T05:00:39.097Z,1022.9
2022-08-12T05:01:39.073Z,1022.89
2022-08-12T05:02:39.242Z,1022.86
2022-08-12T05:03:46.312Z,1022.87
2022-08-12T05:04:39.069Z,1022.87
2022-08-12T05:05:39.084Z,1022.84
2022-08-12T05:06:39.107Z,1022.86
2022-08-12T05:07:54.069Z,1022.89
2022-08-12T05:08:39.095Z,1022.89
2022-08-12T05:09:58.839Z,1022.92
2022-08-12T05:10:39.072Z,1022.95
2022-08-12T05:11:39.087Z,1022.96
2022-08-12T05:12:39.449Z,1022.99
2022-08-12T05:13:39.094Z,1022.94
2022-08-12T05:14:39.079Z,1022.94
2022-08-12T05:16:03.692Z,1022.97
2022-08-12T05:16:39.085Z,1022.98
2022-08-12T05:17:39.084Z,1022.98
2022-08-12T05:18:39.675Z,1022.97
2022-08-12T05:19:39.089Z,1022.96
2022-08-12T05:20:39.067Z,1022.95
2022-08-12T05:21:39.083Z,1022.92
2022-08-12T05:22:39.370Z,1022.94
2022-08-12T05:23:39.095Z,1022.96
2022-08-12T05:24:39.086Z,1023
2022-08-12T05:25:39.078Z,1022.99
2022-08-12T05:26:39.084Z,1023.03
2022-08-12T05:27:39.075Z,1022.98
2022-08-12T05:28:39.091Z,1022.98
2022-08-12T05:30:05.670Z,1023
2022-08-12T05:30:39.067Z,1023.03
2022-08-12T05:31:47.505Z,1023
2022-08-12T05:32:39.226Z,1023
2022-08-12T05:33:39.085Z,1023.06
2022-08-12T05:34:39.063Z,1023.09
2022-08-12T05:35:39.088Z,1023.06
2022-08-12T05:36:39.099Z,1023.05
2022-08-12T05:37:39.080Z,1023.03
2022-08-12T05:38:39.088Z,1023.05
2022-08-12T05:39:39.110Z,1023.06
2022-08-12T05:40:39.073Z,1023.07
2022-08-12T05:41:39.066Z,1023.05
2022-08-12T05:42:39.082Z,1023.06
2022-08-12T05:43:39.098Z,1023.1
2022-08-12T05:44:39.065Z,1023.07
2022-08-12T05:45:44.291Z,1023.04
2022-08-12T05:46:39.087Z,1023.07
2022-08-12T05:47:53.457Z,1023.13
2022-08-12T05:48:39.094Z,1023.17
2022-08-12T05:49:39.084Z,1023.17
2022-08-12T05:50:39.076Z,1024.13
2022-08-12T05:51:40.430Z,1024.14
2022-08-12T05:52:39.229Z,1024.2
2022-08-12T05:53:39.086Z,1024.12
2022-08-12T05:54:56.576Z,1024.07
2022-08-12T05:55:39.091Z,1024.06
2022-08-12T05:56:39.076Z,1024.09
2022-08-12T05:57:39.084Z,1024.07
2022-08-12T05:58:39.091Z,1024.1
2022-08-12T05:59:39.082Z,1024.05
2022-08-12T06:00:39.092Z,1024.08
2022-08-12T06:02:10.330Z,1024.07
2022-08-12T06:02:39.199Z,1024.09
2022-08-12T06:03:39.184Z,1024.08
2022-08-12T06:04:39.078Z,1024.17
2022-08-12T06:05:43.103Z,1024.12
2022-08-12T06:06:39.705Z,1024.11
2022-08-12T06:08:01.555Z,1024.13
2022-08-12T06:08:39.101Z,1024.21
2022-08-12T06:09:39.078Z,1024.2
2022-08-12T06:10:39.084Z,1024.24
2022-08-12T06:11:39.088Z,1024.17
2022-08-12T06:12:39.239Z,1024.11
2022-08-12T06:13:54.319Z,1024.1
2022-08-12T06:15:44.434Z,1024.08
2022-08-12T06:16:43.120Z,1024.01
2022-08-12T06:17:43.104Z,1023.98
2022-08-12T06:18:43.133Z,1023.93
2022-08-12T06:20:27.695Z,1023.9
2022-08-12T06:20:43.129Z,1023.88
2022-08-12T06:21:43.111Z,1023.87
2022-08-12T06:22:43.093Z,1023.85
2022-08-12T06:23:43.114Z,1023.87
2022-08-12T06:24:43.104Z,1023.91
2022-08-12T06:25:43.097Z,1023.9
2022-08-12T06:26:43.085Z,1023.89
2022-08-12T06:27:43.105Z,1023.91
2022-08-12T06:28:43.116Z,1023.9
2022-08-12T06:30:09.913Z,1023.88
2022-08-12T06:30:43.097Z,1023.85
2022-08-12T06:31:43.087Z,1023.8
2022-08-12T06:32:51.736Z,1023.79
2022-08-12T06:33:55.653Z,1023.85
2022-08-12T06:35:26.916Z,1023.9
2022-08-12T06:35:48.209Z,1023.87
2022-08-12T06:36:43.221Z,1023.89
2022-08-12T06:37:43.092Z,1023.92
2022-08-12T06:38:43.113Z,1023.9
2022-08-12T06:39:43.120Z,1023.87
2022-08-12T06:40:43.090Z,1023.82
2022-08-12T06:42:05.139Z,1023.79
2022-08-12T06:42:43.629Z,1023.81
2022-08-12T06:44:04.406Z,1023.82
2022-08-12T06:44:43.101Z,1023.79
2022-08-12T06:45:45.804Z,1023.86
2022-08-12T06:46:43.119Z,1023.88
2022-08-12T06:47:43.085Z,1023.83
2022-08-12T06:48:43.110Z,1023.84
2022-08-12T06:49:43.094Z,1023.82
2022-08-12T06:50:43.084Z,1023.85
2022-08-12T06:51:54.491Z,1023.82
2022-08-12T06:52:43.079Z,1023.85
2022-08-12T06:53:43.123Z,1023.76
2022-08-12T06:54:43.079Z,1023.73
2022-08-12T06:55:57.922Z,1023.72
2022-08-12T06:57:04.237Z,1023.73
2022-08-12T06:58:05.463Z,1023.73
2022-08-12T06:58:43.121Z,1023.67
2022-08-12T06:59:43.074Z,1023.66
2022-08-12T07:00:43.113Z,1023.59
2022-08-12T07:01:50.786Z,1023.56
2022-08-12T07:02:43.264Z,1023.47
2022-08-12T07:03:43.097Z,1023.49
2022-08-12T07:04:43.096Z,1023.48
2022-08-12T07:05:43.105Z,1023.37
2022-08-12T07:06:43.092Z,1023.4
2022-08-12T07:07:43.078Z,1023.44
2022-08-12T07:08:43.098Z,1023.48
2022-08-12T07:10:01.371Z,1023.46
2022-08-12T07:10:43.091Z,1023.47
2022-08-12T07:11:43.096Z,1023.47
2022-08-12T07:12:43.416Z,1023.54
2022-08-12T07:14:11.899Z,1023.54
2022-08-12T07:14:47.006Z,1023.6
2022-08-12T07:15:43.088Z,1023.6
2022-08-12T07:16:43.085Z,1023.51
2022-08-12T07:17:43.096Z,1023.55
2022-08-12T07:18:43.106Z,1023.55
2022-08-12T07:19:45.440Z,1023.53
2022-08-12T07:20:51.835Z,1023.51
2022-08-12T07:22:02.346Z,1023.42
2022-08-12T07:22:43.092Z,1023.39
2022-08-12T07:23:43.106Z,1023.45
2022-08-12T07:24:43.089Z,1023.5
2022-08-12T07:25:43.089Z,1023.49
2022-08-12T07:26:44.362Z,1023.54
2022-08-12T07:27:43.082Z,1023.55
2022-08-12T07:28:43.126Z,1023.55
2022-08-12T07:30:03.613Z,1023.53
2022-08-12T07:30:43.080Z,1023.63
2022-08-12T07:31:43.094Z,1023.55
2022-08-12T07:32:43.300Z,1023.62
2022-08-12T07:33:43.106Z,1023.54
2022-08-12T07:34:43.089Z,1023.55
2022-08-12T07:35:43.081Z,1023.49
2022-08-12T07:36:43.094Z,1023.51
2022-08-12T07:37:43.085Z,1023.52
2022-08-12T07:38:43.091Z,1023.52
2022-08-12T07:39:51.325Z,1023.5
2022-08-12T07:40:43.093Z,1023.45
2022-08-12T07:41:43.089Z,1023.5
2022-08-12T07:42:43.082Z,1023.46
2022-08-12T07:43:43.101Z,1023.5
2022-08-12T07:44:43.077Z,1023.44
2022-08-12T07:45:43.075Z,1023.4
2022-08-12T07:46:43.083Z,1023.41
2022-08-12T07:47:43.078Z,1023.43
2022-08-12T07:48:43.093Z,1023.48
2022-08-12T07:50:05.289Z,1023.43
2022-08-12T07:50:43.102Z,1023.4
2022-08-12T07:51:43.120Z,1023.44
2022-08-12T07:52:43.259Z,1023.43
2022-08-12T07:53:47.766Z,1023.35
2022-08-12T07:54:43.085Z,1023.36
2022-08-12T07:55:43.085Z,1023.37
2022-08-12T07:56:43.093Z,1023.48
2022-08-12T07:57:43.077Z,1023.35
2022-08-12T07:58:47.015Z,1023.34
2022-08-12T07:59:43.074Z,1023.36
2022-08-12T08:00:43.090Z,1023.29
2022-08-12T08:01:43.164Z,1023.3
2022-08-12T08:02:43.083Z,1023.21
2022-08-12T08:03:47.519Z,1023.17
2022-08-12T08:04:43.083Z,1023.19
2022-08-12T08:05:43.089Z,1023.2
2022-08-12T08:06:43.107Z,1023.19
2022-08-12T08:07:43.094Z,1023.18
2022-08-12T08:08:43.099Z,1023.13
2022-08-12T08:09:43.089Z,1023.13
2022-08-12T08:10:43.089Z,1023.2
2022-08-12T08:11:43.093Z,1023.2
2022-08-12T08:12:43.089Z,1023.2
2022-08-12T08:13:43.101Z,1023.2
2022-08-12T08:14:43.095Z,1023.18
2022-08-12T08:16:02.579Z,1023.14
2022-08-12T08:16:43.091Z,1023.15
2022-08-12T08:17:43.073Z,1023.13
2022-08-12T08:18:43.124Z,1023.15
2022-08-12T08:20:02.069Z,1023.07
2022-08-12T08:20:43.089Z,1023.06
2022-08-12T08:21:43.089Z,1022.98
2022-08-12T08:22:43.290Z,1022.92
2022-08-12T08:23:43.106Z,1022.86
2022-08-12T08:24:43.090Z,1022.82
2022-08-12T08:25:43.076Z,1022.79
2022-08-12T08:26:43.082Z,1022.78
2022-08-12T08:27:43.093Z,1022.81
2022-08-12T08:28:43.102Z,1022.7
2022-08-12T08:29:43.088Z,1022.73
2022-08-12T08:30:43.094Z,1022.7
2022-08-12T08:31:45.417Z,1022.74
2022-08-12T08:32:43.075Z,1022.78
2022-08-12T08:34:04.270Z,1022.81
2022-08-12T08:34:53.707Z,1022.8
2022-08-12T08:35:46.872Z,1022.77
2022-08-12T08:36:43.094Z,1022.76
2022-08-12T08:39:04.088Z,1022.8
2022-08-12T08:40:32.519Z,1022.88
2022-08-12T08:42:15.965Z,1022.89
2022-08-12T08:42:31.267Z,1022.91
2022-08-12T08:43:44.733Z,1022.87
2022-08-12T08:44:31.132Z,1022.86
2022-08-12T08:45:31.126Z,1022.82
2022-08-12T08:47:21.519Z,1022.76
2022-08-12T08:48:19.626Z,1022.72
2022-08-12T08:49:19.664Z,1022.72
2022-08-12T08:50:19.624Z,1022.76
2022-08-12T08:51:19.621Z,1022.74
2022-08-12T08:52:39.217Z,1022.68
2022-08-12T08:53:19.600Z,1022.71
2022-08-12T08:54:19.662Z,1022.69
2022-08-12T08:55:25.570Z,1022.68
2022-08-12T08:56:19.607Z,1022.7
2022-08-12T08:57:19.601Z,1022.67
2022-08-12T08:58:19.600Z,1022.65
2022-08-12T08:59:19.619Z,1022.62
2022-08-12T09:00:19.614Z,1022.64
2022-08-12T09:01:19.639Z,1022.69
2022-08-12T09:02:19.634Z,1022.58
2022-08-12T09:05:07.373Z,1022.55
2022-08-12T09:05:08.115Z,1022.49
2022-08-12T09:05:24.802Z,1022.48
2022-08-12T09:06:19.620Z,1022.46
2022-08-12T09:08:26.678Z,1022.53
2022-08-12T09:09:19.622Z,1022.49
2022-08-12T09:10:30.513Z,1022.47
2022-08-12T09:12:06.615Z,1022.4
2022-08-12T09:12:27.395Z,1022.4
2022-08-12T09:13:23.139Z,1022.4
2022-08-12T09:14:19.617Z,1022.39
2022-08-12T09:15:19.614Z,1022.32
2022-08-12T09:16:20.407Z,1022.41
2022-08-12T09:17:21.367Z,1022.32
2022-08-12T09:19:27.179Z,1022.35
2022-08-12T09:20:19.651Z,1022.36
2022-08-12T09:21:19.622Z,1022.34
2022-08-12T09:24:00.369Z,1022.25
2022-08-12T09:24:19.905Z,1022.28
2022-08-12T09:25:25.700Z,1022.34
2022-08-12T09:26:19.599Z,1022.29
2022-08-12T09:27:19.603Z,1022.3
2022-08-12T09:28:19.910Z,1022.34
2022-08-12T09:29:19.623Z,1022.37
2022-08-12T09:30:42.271Z,1022.31
2022-08-12T09:32:06.780Z,1022.31
2022-08-12T09:32:56.095Z,1022.22
2022-08-12T09:34:27.448Z,1022.28
2022-08-12T09:34:27.874Z,1022.23
2022-08-12T09:35:22.288Z,1022.18
2022-08-12T09:36:31.125Z,1022.17
2022-08-12T09:37:22.505Z,1022.21
2022-08-12T09:38:28.905Z,1022.2
2022-08-12T09:40:05.845Z,1022.19
2022-08-12T09:41:01.629Z,1022.17
2022-08-12T09:42:34.014Z,1022.17
2022-08-12T09:42:40.831Z,1022.1
2022-08-12T09:43:20.390Z,1022.05
2022-08-12T09:44:38.006Z,1022.03
2022-08-12T09:45:23.591Z,1022.05
2022-08-12T09:46:25.008Z,1021.96
2022-08-12T09:47:19.605Z,1022.07
2022-08-12T09:48:22.101Z,1022.1
2022-08-12T09:49:19.613Z,1022.1
2022-08-12T09:50:20.447Z,1021.98
2022-08-12T09:51:22.570Z,1022.01
2022-08-12T09:52:20.078Z,1021.98
2022-08-12T09:53:36.261Z,1022.03
2022-08-12T09:54:32.926Z,1022.04
2022-08-12T09:56:06.176Z,1022.01
2022-08-12T09:56:59.208Z,1021.95
2022-08-12T09:58:45.829Z,1021.9
2022-08-12T09:58:57.574Z,1021.9
2022-08-12T10:00:16.741Z,1021.96
2022-08-12T10:00:29.256Z,1021.91
2022-08-12T10:01:23.258Z,1021.91
2022-08-12T10:02:44.298Z,1021.92
2022-08-12T10:03:31.778Z,1021.91
2022-08-12T10:04:31.115Z,1021.85
2022-08-12T10:06:19.627Z,1021.88
2022-08-12T10:06:31.927Z,1021.76
2022-08-12T10:07:40.012Z,1021.79
2022-08-12T10:08:29.185Z,1021.79
2022-08-12T10:09:57.137Z,1021.76
2022-08-12T10:10:30.427Z,1021.74
2022-08-12T10:11:29.184Z,1021.72
2022-08-12T10:12:32.940Z,1021.75
2022-08-12T10:13:35.710Z,1021.78
2022-08-12T10:14:33.299Z,1021.77
2022-08-12T10:16:02.529Z,1021.79
2022-08-12T10:16:29.185Z,1021.84
2022-08-12T10:17:29.197Z,1021.8
2022-08-12T10:18:29.169Z,1021.77
2022-08-12T10:19:36.548Z,1021.74
2022-08-12T10:20:29.161Z,1021.71
2022-08-12T10:21:35.534Z,1021.8
2022-08-12T10:22:40.003Z,1021.74
2022-08-12T10:23:39.551Z,1021.64
2022-08-12T10:24:29.176Z,1021.59
2022-08-12T10:26:18.891Z,1021.63
2022-08-12T10:26:36.606Z,1021.63
2022-08-12T10:27:39.284Z,1021.69
2022-08-12T10:28:29.159Z,1021.63
2022-08-12T10:30:03.737Z,1021.64
2022-08-12T10:30:39.898Z,1021.66
2022-08-12T10:31:29.171Z,1021.6
2022-08-12T10:32:42.840Z,1021.7
2022-08-12T10:33:31.655Z,1021.69
2022-08-12T10:34:29.183Z,1021.7
2022-08-12T10:35:29.164Z,1021.69
2022-08-12T10:36:40.127Z,1021.74
2022-08-12T10:38:34.468Z,1021.68
2022-08-12T10:38:35.029Z,1021.63
2022-08-12T10:40:00.969Z,1021.62
2022-08-12T10:40:32.673Z,1021.6
2022-08-12T10:41:58.521Z,1021.61
2022-08-12T10:42:29.896Z,1021.55
2022-08-12T10:43:29.156Z,1021.55
2022-08-12T10:44:29.174Z,1021.57
2022-08-12T10:45:30.367Z,1021.52
2022-08-12T10:46:31.525Z,1021.46
2022-08-12T10:48:07.670Z,1021.47
2022-08-12T10:48:33.953Z,1021.49
2022-08-12T10:50:02.280Z,1021.49
2022-08-12T10:50:58.318Z,1021.44
2022-08-12T10:52:03.019Z,1021.38
2022-08-12T10:52:34.239Z,1021.42
2022-08-12T10:53:45.422Z,1021.39
2022-08-12T10:54:29.186Z,1021.43
2022-08-12T10:55:29.183Z,1021.42
2022-08-12T10:56:34.262Z,1021.38
2022-08-12T10:58:15.701Z,1021.4
2022-08-12T10:58:30.891Z,1021.37
2022-08-12T11:00:29.713Z,1021.4
2022-08-12T11:00:35.701Z,1021.44
2022-08-12T11:04:18.657Z,1021.45
2022-08-12T11:04:25.625Z,1021.42
2022-08-12T11:04:26.470Z,1021.43
2022-08-12T11:04:39.464Z,1021.51
2022-08-12T11:07:08.650Z,1021.43
2022-08-12T11:07:09.473Z,1021.45
2022-08-12T11:08:36.717Z,1021.37
2022-08-12T11:08:37.189Z,1021.32
2022-08-12T11:09:41.719Z,1021.38
2022-08-12T11:10:29.220Z,1021.37
2022-08-12T11:12:36.098Z,1021.35
2022-08-12T11:12:54.769Z,1021.29
2022-08-12T11:13:45.802Z,1021.36
2022-08-12T11:14:48.408Z,1021.01
2022-08-12T11:16:02.569Z,1021.04
2022-08-12T11:16:29.162Z,1021.01
2022-08-12T11:17:43.481Z,1021.01
2022-08-12T11:18:29.149Z,1021
2022-08-12T11:19:29.181Z,1020.98
2022-08-12T11:20:31.199Z,1020.91
2022-08-12T11:21:56.570Z,1020.85
2022-08-12T11:22:29.917Z,1020.88
2022-08-12T11:23:37.330Z,1020.83
2022-08-12T11:24:31.763Z,1020.83
2022-08-12T11:25:56.598Z,1020.88
2022-08-12T11:26:29.158Z,1020.87
2022-08-12T11:27:29.624Z,1020.83
2022-08-12T11:28:33.862Z,1020.86
2022-08-12T11:30:01.484Z,1020.81
2022-08-12T11:30:30.569Z,1020.83
2022-08-12T11:31:29.161Z,1020.69
2022-08-12T11:32:29.150Z,1020.71
2022-08-12T11:34:05.620Z,1020.78
2022-08-12T11:34:52.704Z,1020.73
2022-08-12T11:38:34.149Z,1020.76
2022-08-12T11:40:29.122Z,1020.78
2022-08-12T11:41:32.130Z,1020.58
2022-08-12T11:42:32.442Z,1020.68
2022-08-12T11:43:30.912Z,1020.72
2022-08-12T11:44:36.782Z,1020.74
2022-08-12T11:45:29.141Z,1020.72
2022-08-12T11:46:29.142Z,1020.69
2022-08-12T11:47:29.128Z,1020.62
2022-08-12T11:48:50.928Z,1020.64
2022-08-12T11:49:31.283Z,1020.63
2022-08-12T11:50:32.092Z,1020.52
2022-08-12T11:51:29.118Z,1020.5
2022-08-12T11:52:55.366Z,1020.54
2022-08-12T11:53:56.347Z,1020.6
2022-08-12T11:54:29.565Z,1020.69
2022-08-12T11:55:29.470Z,1020.6
2022-08-12T11:56:38.196Z,1020.62
2022-08-12T11:58:17.186Z,1020.54
2022-08-12T11:59:02.953Z,1020.57
2022-08-12T12:02:02.421Z,1020.53
2022-08-12T12:02:29.164Z,1020.56
2022-08-12T12:03:43.655Z,1020.53
2022-08-12T12:04:29.650Z,1020.63
2022-08-12T12:05:41.694Z,1020.66
2022-08-12T12:06:29.115Z,1020.61
2022-08-12T12:08:36.095Z,1020.61
2022-08-12T12:08:38.288Z,1020.64
2022-08-12T12:09:29.145Z,1020.63
2022-08-12T12:10:29.108Z,1020.63
2022-08-12T12:11:39.130Z,1020.67
2022-08-12T12:12:29.103Z,1020.68
2022-08-12T12:14:07.928Z,1020.67
2022-08-12T12:14:38.104Z,1020.67
2022-08-12T12:15:40.670Z,1020.68
2022-08-12T12:16:29.990Z,1020.73
2022-08-12T12:17:38.106Z,1020.72
2022-08-12T12:18:30.662Z,1020.71
2022-08-12T12:19:29.089Z,1020.67
2022-08-12T12:20:30.576Z,1020.55
2022-08-12T12:21:47.323Z,1020.58
2022-08-12T12:22:30.957Z,1020.62
2022-08-12T12:23:29.544Z,1020.65
2022-08-12T12:24:29.127Z,1020.6
2022-08-12T12:26:06.780Z,1020.71
2022-08-12T12:26:34.785Z,1020.65
2022-08-12T12:28:03.772Z,1020.59
2022-08-12T12:28:37.924Z,1020.63